sensor_id;sensor_type;location;lat;lon;timestamp;temperature;humidity
33927;DHT22;20485;50.992;5.550;2023-02-11T02:08:41;4.60;99.90
33927;DHT22;20485;50.992;5.550;2023-02-11T02:11:18;4.60;99.90
33927;DHT22;20485;50.992;5.550;2023-02-11T02:13:51;4.70;99.90
33927;DHT22;20485;50.992;5.550;2023-02-11T02:16:39;4.60;99.90
33927;DHT22;20485;50.992;5.550;2023-02-11T02:35:46;4.70;99.90
33927;DHT22;20485;50.992;5.550;2023-02-11T02:41:36;4.70;99.90
33927;DHT22;20485;50.992;5.550;2023-02-11T02:44:31;4.70;99.90
33927;DHT22;20485;50.992;5.550;2023-02-11T02:50:35;4.80;99.90
33927;DHT22;20485;50.992;5.550;2023-02-11T02:53:17;4.70;99.90
33927;DHT22;20485;50.992;5.550;2023-02-11T02:56:24;4.80;99.90
33927;DHT22;20485;50.992;5.550;2023-02-11T03:54:14;4.80;99.90
33927;DHT22;20485;50.992;5.550;2023-02-11T03:56:55;4.80;99.90
33927;DHT22;20485;50.992;5.550;2023-02-11T03:59:21;4.90;99.90
33927;DHT22;20485;50.992;5.550;2023-02-11T04:01:49;4.90;99.90
33927;DHT22;20485;50.992;5.550;2023-02-11T04:04:15;4.80;99.90
33927;DHT22;20485;50.992;5.550;2023-02-11T04:06:51;4.90;99.90
33927;DHT22;20485;50.992;5.550;2023-02-11T04:09:34;4.90;99.90
33927;DHT22;20485;50.992;5.550;2023-02-11T04:12:04;4.90;99.90
33927;DHT22;20485;50.992;5.550;2023-02-11T04:14:38;4.90;99.90
33927;DHT22;20485;50.992;5.550;2023-02-11T04:17:07;5.80;99.90
33927;DHT22;20485;50.992;5.550;2023-02-11T04:19:38;4.90;99.90
33927;DHT22;20485;50.992;5.550;2023-02-11T04:22:28;4.90;99.90
33927;DHT22;20485;50.992;5.550;2023-02-11T04:28:43;4.80;99.90
33927;DHT22;20485;50.992;5.550;2023-02-11T04:34:31;4.90;99.90
33927;DHT22;20485;50.992;5.550;2023-02-11T04:40:09;4.90;99.90
33927;DHT22;20485;50.992;5.550;2023-02-11T04:42:49;4.90;99.90
33927;DHT22;20485;50.992;5.550;2023-02-11T04:45:33;4.90;99.90
33927;DHT22;20485;50.992;5.550;2023-02-11T08:27:48;5.70;99.90
33927;DHT22;20485;50.992;5.550;2023-02-11T08:30:14;5.70;99.90
33927;DHT22;20485;50.992;5.550;2023-02-11T08:32:39;5.70;99.90
33927;DHT22;20485;50.992;5.550;2023-02-11T11:19:22;6.70;99.90
33927;DHT22;20485;50.992;5.550;2023-02-11T11:21:54;6.80;99.90
33927;DHT22;20485;50.992;5.550;2023-02-11T11:24:40;6.70;99.90
33927;DHT22;20485;50.992;5.550;2023-02-11T11:27:17;6.80;99.90
33927;DHT22;20485;50.992;5.550;2023-02-11T11:29:49;6.80;99.90
33927;DHT22;20485;50.992;5.550;2023-02-11T11:32:25;6.70;99.90
33927;DHT22;20485;50.992;5.550;2023-02-11T11:35:29;6.80;99.90
33927;DHT22;20485;50.992;5.550;2023-02-11T11:38:04;6.80;99.90
33927;DHT22;20485;50.992;5.550;2023-02-11T11:40:37;6.80;99.90
33927;DHT22;20485;50.992;5.550;2023-02-11T11:48:57;6.90;99.90
33927;DHT22;20485;50.992;5.550;2023-02-11T11:51:27;6.80;99.90
33927;DHT22;20485;50.992;5.550;2023-02-11T11:54:11;6.80;99.90
33927;DHT22;20485;50.992;5.550;2023-02-11T11:56:39;6.90;99.90
33927;DHT22;20485;50.992;5.550;2023-02-11T11:59:13;6.90;99.90
33927;DHT22;20485;50.992;5.550;2023-02-11T13:17:43;7.40;99.90
33927;DHT22;20485;50.992;5.550;2023-02-11T13:20:34;7.40;99.90
33927;DHT22;20485;50.992;5.550;2023-02-11T13:26:05;7.30;99.90
33927;DHT22;20485;50.992;5.550;2023-02-11T13:28:57;7.30;99.90
33927;DHT22;20485;50.992;5.550;2023-02-11T13:31:25;7.40;99.90
33927;DHT22;20485;50.992;5.550;2023-02-11T13:33:54;7.40;99.90
33927;DHT22;20485;50.992;5.550;2023-02-11T13:36:36;7.40;99.90
33927;DHT22;20485;50.992;5.550;2023-02-11T13:39:20;7.50;99.90
33927;DHT22;20485;50.992;5.550;2023-02-11T13:41:46;7.50;99.90
33927;DHT22;20485;50.992;5.550;2023-02-11T13:44:41;7.40;99.90
33927;DHT22;20485;50.992;5.550;2023-02-11T13:47:10;7.40;99.90
33927;DHT22;20485;50.992;5.550;2023-02-11T13:50:07;7.40;99.90
33927;DHT22;20485;50.992;5.550;2023-02-11T13:52:47;7.50;99.90
33927;DHT22;20485;50.992;5.550;2023-02-11T13:55:32;7.50;99.90
33927;DHT22;20485;50.992;5.550;2023-02-11T13:58:35;7.50;99.90
33927;DHT22;20485;50.992;5.550;2023-02-11T14:14:27;7.40;99.90
33927;DHT22;20485;50.992;5.550;2023-02-11T17:32:12;6.80;99.90
33927;DHT22;20485;50.992;5.550;2023-02-11T17:34:38;6.70;99.90
33927;DHT22;20485;50.992;5.550;2023-02-11T17:37:05;6.80;99.90
33927;DHT22;20485;50.992;5.550;2023-02-11T17:39:37;6.70;99.90
33927;DHT22;20485;50.992;5.550;2023-02-11T17:42:04;6.70;99.90
33927;DHT22;20485;50.992;5.550;2023-02-11T17:44:33;6.70;99.90
33927;DHT22;20485;50.992;5.550;2023-02-11T17:47:01;6.70;99.90
33927;DHT22;20485;50.992;5.550;2023-02-11T17:49:27;6.70;99.90
33927;DHT22;20485;50.992;5.550;2023-02-11T17:51:53;6.70;99.90
33927;DHT22;20485;50.992;5.550;2023-02-11T17:54:19;6.70;99.90
33927;DHT22;20485;50.992;5.550;2023-02-11T17:56:46;6.70;99.90
33927;DHT22;20485;50.992;5.550;2023-02-11T17:59:20;6.70;99.90
33927;DHT22;20485;50.992;5.550;2023-02-11T18:01:47;6.70;99.90
33927;DHT22;20485;50.992;5.550;2023-02-11T18:04:15;6.60;99.90
33927;DHT22;20485;50.992;5.550;2023-02-11T18:06:48;6.60;99.90
33927;DHT22;20485;50.992;5.550;2023-02-11T18:09:16;6.60;99.90
33927;DHT22;20485;50.992;5.550;2023-02-11T18:11:53;6.70;99.90
33927;DHT22;20485;50.992;5.550;2023-02-11T18:14:20;6.60;99.90
33927;DHT22;20485;50.992;5.550;2023-02-11T18:16:54;6.60;99.90
33927;DHT22;20485;50.992;5.550;2023-02-11T18:19:20;6.60;99.90
33927;DHT22;20485;50.992;5.550;2023-02-11T18:21:50;6.60;99.90
33927;DHT22;20485;50.992;5.550;2023-02-11T18:24:16;6.60;99.90
33927;DHT22;20485;50.992;5.550;2023-02-11T18:26:46;6.60;99.90
33927;DHT22;20485;50.992;5.550;2023-02-11T18:29:14;6.60;99.90
33927;DHT22;20485;50.992;5.550;2023-02-11T18:34:10;6.60;99.90
33927;DHT22;20485;50.992;5.550;2023-02-11T18:36:36;6.60;99.90
33927;DHT22;20485;50.992;5.550;2023-02-11T18:39:02;6.50;99.90
33927;DHT22;20485;50.992;5.550;2023-02-11T18:41:29;6.60;99.90
33927;DHT22;20485;50.992;5.550;2023-02-11T18:43:56;6.60;99.90
33927;DHT22;20485;50.992;5.550;2023-02-11T18:46:24;6.50;99.90
33927;DHT22;20485;50.992;5.550;2023-02-11T18:48:50;6.50;99.90
33927;DHT22;20485;50.992;5.550;2023-02-11T18:51:17;6.50;99.90
33927;DHT22;20485;50.992;5.550;2023-02-11T18:53:49;6.50;99.90
33927;DHT22;20485;50.992;5.550;2023-02-11T18:56:18;6.50;99.90
33927;DHT22;20485;50.992;5.550;2023-02-11T18:58:45;6.50;99.90
33927;DHT22;20485;50.992;5.550;2023-02-11T19:01:20;6.40;99.90
33927;DHT22;20485;50.992;5.550;2023-02-11T19:03:49;6.40;99.90
33927;DHT22;20485;50.992;5.550;2023-02-11T19:06:22;6.40;99.90
33927;DHT22;20485;50.992;5.550;2023-02-11T19:08:53;6.40;99.90
33927;DHT22;20485;50.992;5.550;2023-02-11T19:11:21;6.40;99.90
33927;DHT22;20485;50.992;5.550;2023-02-11T19:14:12;6.40;99.90
33927;DHT22;20485;50.992;5.550;2023-02-11T19:16:43;6.40;99.90
33927;DHT22;20485;50.992;5.550;2023-02-11T19:19:10;6.40;99.90
33927;DHT22;20485;50.992;5.550;2023-02-11T19:21:36;6.40;99.90
33927;DHT22;20485;50.992;5.550;2023-02-11T19:24:06;6.40;99.90
33927;DHT22;20485;50.992;5.550;2023-02-11T19:26:37;6.40;99.90
33927;DHT22;20485;50.992;5.550;2023-02-11T19:29:07;6.40;99.90
